sensor_id;sensor_type;location;lat;lon;timestamp;P1;durP1;ratioP1;P2;durP2;ratioP2
26806;SDS011;14380;49.910;6.792;2023-03-31T00:01:50;12.43;;;2.92;;
26806;SDS011;14380;49.910;6.792;2023-03-31T00:04:18;6.82;;;2.20;;
26806;SDS011;14380;49.910;6.792;2023-03-31T00:06:48;10.05;;;2.88;;
26806;SDS011;14380;49.910;6.792;2023-03-31T00:09:18;9.88;;;2.28;;
26806;SDS011;14380;49.910;6.792;2023-03-31T00:11:46;13.30;;;2.70;;
26806;SDS011;14380;49.910;6.792;2023-03-31T00:14:13;13.35;;;2.90;;
26806;SDS011;14380;49.910;6.792;2023-03-31T00:16:41;18.77;;;2.92;;
26806;SDS011;14380;49.910;6.792;2023-03-31T00:19:11;13.27;;;3.53;;
26806;SDS011;14380;49.910;6.792;2023-03-31T00:21:42;18.25;;;3.05;;
26806;SDS011;14380;49.910;6.792;2023-03-31T00:24:09;14.27;;;2.80;;
26806;SDS011;14380;49.910;6.792;2023-03-31T00:26:37;12.32;;;2.33;;
26806;SDS011;14380;49.910;6.792;2023-03-31T00:29:04;16.90;;;2.70;;
26806;SDS011;14380;49.910;6.792;2023-03-31T00:31:32;16.05;;;2.63;;
26806;SDS011;14380;49.910;6.792;2023-03-31T00:34:00;14.35;;;2.63;;
26806;SDS011;14380;49.910;6.792;2023-03-31T00:36:28;15.95;;;2.67;;
26806;SDS011;14380;49.910;6.792;2023-03-31T00:38:56;16.40;;;2.38;;
26806;SDS011;14380;49.910;6.792;2023-03-31T00:41:25;17.90;;;2.95;;
26806;SDS011;14380;49.910;6.792;2023-03-31T00:44:00;18.75;;;2.80;;
26806;SDS011;14380;49.910;6.792;2023-03-31T00:46:32;17.08;;;3.03;;
26806;SDS011;14380;49.910;6.792;2023-03-31T00:49:02;14.95;;;2.72;;
26806;SDS011;14380;49.910;6.792;2023-03-31T00:51:31;12.88;;;2.90;;
26806;SDS011;14380;49.910;6.792;2023-03-31T00:54:00;16.50;;;3.05;;
26806;SDS011;14380;49.910;6.792;2023-03-31T00:56:30;20.70;;;3.13;;
26806;SDS011;14380;49.910;6.792;2023-03-31T00:59:00;19.67;;;2.88;;
26806;SDS011;14380;49.910;6.792;2023-03-31T01:01:28;17.10;;;2.80;;
26806;SDS011;14380;49.910;6.792;2023-03-31T01:03:56;16.27;;;2.95;;
26806;SDS011;14380;49.910;6.792;2023-03-31T01:06:23;18.23;;;2.80;;
26806;SDS011;14380;49.910;6.792;2023-03-31T01:08:56;15.27;;;2.05;;
26806;SDS011;14380;49.910;6.792;2023-03-31T01:11:23;15.80;;;2.20;;
26806;SDS011;14380;49.910;6.792;2023-03-31T01:13:54;17.38;;;3.05;;
26806;SDS011;14380;49.910;6.792;2023-03-31T01:16:22;12.70;;;2.33;;
26806;SDS011;14380;49.910;6.792;2023-03-31T01:18:49;11.65;;;2.28;;
26806;SDS011;14380;49.910;6.792;2023-03-31T01:21:34;17.35;;;3.05;;
26806;SDS011;14380;49.910;6.792;2023-03-31T01:24:44;15.10;;;3.47;;
26806;SDS011;14380;49.910;6.792;2023-03-31T01:33:38;19.90;;;3.00;;
26806;SDS011;14380;49.910;6.792;2023-03-31T01:36:30;15.10;;;3.47;;
26806;SDS011;14380;49.910;6.792;2023-03-31T01:42:11;17.83;;;2.83;;
26806;SDS011;14380;49.910;6.792;2023-03-31T01:44:42;21.23;;;2.70;;
26806;SDS011;14380;49.910;6.792;2023-03-31T01:47:13;20.48;;;4.03;;
26806;SDS011;14380;49.910;6.792;2023-03-31T01:49:49;16.38;;;2.28;;
26806;SDS011;14380;49.910;6.792;2023-03-31T01:52:22;18.48;;;2.42;;
26806;SDS011;14380;49.910;6.792;2023-03-31T01:54:55;23.10;;;3.00;;
26806;SDS011;14380;49.910;6.792;2023-03-31T01:57:30;15.02;;;3.30;;
26806;SDS011;14380;49.910;6.792;2023-03-31T02:00:01;16.55;;;2.67;;
26806;SDS011;14380;49.910;6.792;2023-03-31T02:02:30;14.23;;;2.47;;
26806;SDS011;14380;49.910;6.792;2023-03-31T02:05:04;18.58;;;2.28;;
26806;SDS011;14380;49.910;6.792;2023-03-31T02:07:36;15.75;;;3.00;;
26806;SDS011;14380;49.910;6.792;2023-03-31T02:10:07;18.02;;;2.78;;
26806;SDS011;14380;49.910;6.792;2023-03-31T02:12:38;15.77;;;1.90;;
26806;SDS011;14380;49.910;6.792;2023-03-31T02:15:09;14.75;;;2.53;;
26806;SDS011;14380;49.910;6.792;2023-03-31T02:17:39;11.57;;;2.20;;
26806;SDS011;14380;49.910;6.792;2023-03-31T02:20:12;16.27;;;2.25;;
26806;SDS011;14380;49.910;6.792;2023-03-31T02:22:43;14.63;;;2.05;;
26806;SDS011;14380;49.910;6.792;2023-03-31T02:25:13;16.95;;;2.33;;
26806;SDS011;14380;49.910;6.792;2023-03-31T02:27:45;7.30;;;1.52;;
26806;SDS011;14380;49.910;6.792;2023-03-31T02:30:16;13.45;;;1.83;;
26806;SDS011;14380;49.910;6.792;2023-03-31T02:32:43;21.25;;;2.92;;
26806;SDS011;14380;49.910;6.792;2023-03-31T02:35:12;15.52;;;2.20;;
26806;SDS011;14380;49.910;6.792;2023-03-31T02:37:41;14.93;;;2.15;;
26806;SDS011;14380;49.910;6.792;2023-03-31T02:40:10;10.85;;;1.85;;
26806;SDS011;14380;49.910;6.792;2023-03-31T02:42:40;10.75;;;1.67;;
26806;SDS011;14380;49.910;6.792;2023-03-31T02:48:03;14.50;;;2.47;;
26806;SDS011;14380;49.910;6.792;2023-03-31T02:50:32;13.07;;;2.45;;
26806;SDS011;14380;49.910;6.792;2023-03-31T02:53:08;14.10;;;3.08;;
26806;SDS011;14380;49.910;6.792;2023-03-31T02:55:47;12.95;;;2.70;;
26806;SDS011;14380;49.910;6.792;2023-03-31T03:01:36;9.85;;;1.98;;
26806;SDS011;14380;49.910;6.792;2023-03-31T03:04:12;12.98;;;2.33;;
26806;SDS011;14380;49.910;6.792;2023-03-31T03:06:53;17.38;;;2.22;;
26806;SDS011;14380;49.910;6.792;2023-03-31T03:09:32;10.05;;;2.10;;
26806;SDS011;14380;49.910;6.792;2023-03-31T03:12:07;11.68;;;1.45;;
26806;SDS011;14380;49.910;6.792;2023-03-31T03:14:41;9.07;;;1.83;;
26806;SDS011;14380;49.910;6.792;2023-03-31T03:17:15;13.00;;;1.90;;
26806;SDS011;14380;49.910;6.792;2023-03-31T03:19:49;12.43;;;2.08;;
26806;SDS011;14380;49.910;6.792;2023-03-31T03:22:16;10.52;;;1.40;;
26806;SDS011;14380;49.910;6.792;2023-03-31T03:24:43;12.13;;;2.17;;
26806;SDS011;14380;49.910;6.792;2023-03-31T03:27:09;12.55;;;1.73;;
26806;SDS011;14380;49.910;6.792;2023-03-31T03:29:36;10.68;;;1.88;;
26806;SDS011;14380;49.910;6.792;2023-03-31T03:32:02;15.45;;;2.10;;
26806;SDS011;14380;49.910;6.792;2023-03-31T03:34:30;12.23;;;2.00;;
26806;SDS011;14380;49.910;6.792;2023-03-31T03:36:57;13.10;;;1.77;;
26806;SDS011;14380;49.910;6.792;2023-03-31T03:39:24;11.15;;;2.10;;
26806;SDS011;14380;49.910;6.792;2023-03-31T03:41:50;13.02;;;2.00;;
26806;SDS011;14380;49.910;6.792;2023-03-31T03:44:17;9.40;;;1.50;;
26806;SDS011;14380;49.910;6.792;2023-03-31T03:46:43;9.10;;;1.90;;
26806;SDS011;14380;49.910;6.792;2023-03-31T03:49:10;7.93;;;1.65;;
26806;SDS011;14380;49.910;6.792;2023-03-31T03:51:38;13.07;;;1.90;;
26806;SDS011;14380;49.910;6.792;2023-03-31T03:54:05;12.65;;;1.80;;
26806;SDS011;14380;49.910;6.792;2023-03-31T03:56:31;12.07;;;2.03;;
26806;SDS011;14380;49.910;6.792;2023-03-31T03:58:58;8.20;;;1.80;;
26806;SDS011;14380;49.910;6.792;2023-03-31T04:01:24;10.20;;;1.92;;
26806;SDS011;14380;49.910;6.792;2023-03-31T04:03:51;12.93;;;2.40;;
26806;SDS011;14380;49.910;6.792;2023-03-31T04:06:19;16.77;;;2.80;;
26806;SDS011;14380;49.910;6.792;2023-03-31T04:08:48;8.88;;;1.88;;
26806;SDS011;14380;49.910;6.792;2023-03-31T04:11:15;15.23;;;1.55;;
26806;SDS011;14380;49.910;6.792;2023-03-31T04:13:43;7.30;;;1.27;;
26806;SDS011;14380;49.910;6.792;2023-03-31T04:16:10;13.77;;;1.75;;
26806;SDS011;14380;49.910;6.792;2023-03-31T04:18:37;15.98;;;1.45;;
26806;SDS011;14380;49.910;6.792;2023-03-31T04:21:06;13.82;;;1.85;;
26806;SDS011;14380;49.910;6.792;2023-03-31T04:23:36;11.20;;;1.35;;
26806;SDS011;14380;49.910;6.792;2023-03-31T04:26:08;10.60;;;1.92;;
26806;SDS011;14380;49.910;6.792;2023-03-31T04:28:34;15.35;;;1.92;;
26806;SDS011;14380;49.910;6.792;2023-03-31T04:31:01;13.60;;;1.98;;
26806;SDS011;14380;49.910;6.792;2023-03-31T04:33:30;12.90;;;1.77;;
26806;SDS011;14380;49.910;6.792;2023-03-31T04:35:58;12.35;;;1.80;;
26806;SDS011;14380;49.910;6.792;2023-03-31T04:38:31;10.40;;;1.67;;
26806;SDS011;14380;49.910;6.792;2023-03-31T04:40:58;13.55;;;3.08;;
26806;SDS011;14380;49.910;6.792;2023-03-31T04:43:27;12.52;;;1.73;;
26806;SDS011;14380;49.910;6.792;2023-03-31T04:45:53;10.55;;;1.73;;
26806;SDS011;14380;49.910;6.792;2023-03-31T04:48:20;11.23;;;1.88;;
26806;SDS011;14380;49.910;6.792;2023-03-31T04:50:46;13.43;;;2.08;;
26806;SDS011;14380;49.910;6.792;2023-03-31T04:53:13;11.05;;;2.20;;
26806;SDS011;14380;49.910;6.792;2023-03-31T04:55:39;13.45;;;1.80;;
26806;SDS011;14380;49.910;6.792;2023-03-31T04:58:06;7.47;;;1.85;;
26806;SDS011;14380;49.910;6.792;2023-03-31T05:00:34;7.15;;;1.83;;
26806;SDS011;14380;49.910;6.792;2023-03-31T05:03:00;4.88;;;1.48;;
26806;SDS011;14380;49.910;6.792;2023-03-31T05:05:27;5.45;;;1.52;;
26806;SDS011;14380;49.910;6.792;2023-03-31T05:07:54;9.73;;;1.90;;
26806;SDS011;14380;49.910;6.792;2023-03-31T05:10:21;10.20;;;2.42;;
26806;SDS011;14380;49.910;6.792;2023-03-31T05:12:47;10.25;;;1.90;;
26806;SDS011;14380;49.910;6.792;2023-03-31T05:15:14;7.28;;;1.95;;
26806;SDS011;14380;49.910;6.792;2023-03-31T05:17:43;6.28;;;2.00;;
26806;SDS011;14380;49.910;6.792;2023-03-31T05:20:10;8.50;;;2.25;;
26806;SDS011;14380;49.910;6.792;2023-03-31T05:22:38;6.00;;;2.10;;
26806;SDS011;14380;49.910;6.792;2023-03-31T05:25:06;6.10;;;2.10;;
26806;SDS011;14380;49.910;6.792;2023-03-31T05:27:34;6.05;;;1.88;;
26806;SDS011;14380;49.910;6.792;2023-03-31T05:30:01;7.25;;;1.95;;
26806;SDS011;14380;49.910;6.792;2023-03-31T05:32:28;4.53;;;1.65;;
26806;SDS011;14380;49.910;6.792;2023-03-31T05:34:56;3.50;;;1.27;;
26806;SDS011;14380;49.910;6.792;2023-03-31T05:37:23;5.22;;;1.52;;
26806;SDS011;14380;49.910;6.792;2023-03-31T05:39:51;4.13;;;1.20;;
26806;SDS011;14380;49.910;6.792;2023-03-31T05:42:18;6.82;;;1.30;;
26806;SDS011;14380;49.910;6.792;2023-03-31T05:44:45;2.78;;;1.30;;
26806;SDS011;14380;49.910;6.792;2023-03-31T05:47:12;4.55;;;1.65;;
26806;SDS011;14380;49.910;6.792;2023-03-31T05:49:39;4.38;;;1.40;;
26806;SDS011;14380;49.910;6.792;2023-03-31T05:52:09;2.03;;;0.93;;
26806;SDS011;14380;49.910;6.792;2023-03-31T05:54:36;7.88;;;1.98;;
26806;SDS011;14380;49.910;6.792;2023-03-31T05:57:02;7.30;;;2.03;;
26806;SDS011;14380;49.910;6.792;2023-03-31T05:59:29;6.65;;;1.80;;
26806;SDS011;14380;49.910;6.792;2023-03-31T06:01:55;6.68;;;1.90;;
26806;SDS011;14380;49.910;6.792;2023-03-31T06:04:22;5.15;;;1.83;;
26806;SDS011;14380;49.910;6.792;2023-03-31T06:06:49;3.15;;;1.52;;
26806;SDS011;14380;49.910;6.792;2023-03-31T06:09:17;4.40;;;1.23;;
26806;SDS011;14380;49.910;6.792;2023-03-31T06:11:44;2.55;;;0.95;;
26806;SDS011;14380;49.910;6.792;2023-03-31T06:14:11;7.53;;;1.80;;
26806;SDS011;14380;49.910;6.792;2023-03-31T06:16:37;3.10;;;1.13;;
26806;SDS011;14380;49.910;6.792;2023-03-31T06:19:04;4.05;;;1.45;;
26806;SDS011;14380;49.910;6.792;2023-03-31T06:21:31;3.33;;;1.00;;
26806;SDS011;14380;49.910;6.792;2023-03-31T06:23:58;2.45;;;0.80;;
26806;SDS011;14380;49.910;6.792;2023-03-31T06:26:26;2.15;;;0.90;;
26806;SDS011;14380;49.910;6.792;2023-03-31T06:28:53;4.47;;;1.23;;
26806;SDS011;14380;49.910;6.792;2023-03-31T06:31:20;3.90;;;1.13;;
26806;SDS011;14380;49.910;6.792;2023-03-31T06:33:48;2.42;;;0.95;;
26806;SDS011;14380;49.910;6.792;2023-03-31T06:36:16;4.50;;;0.90;;
26806;SDS011;14380;49.910;6.792;2023-03-31T06:38:44;4.43;;;1.25;;
26806;SDS011;14380;49.910;6.792;2023-03-31T06:41:12;2.97;;;1.20;;
26806;SDS011;14380;49.910;6.792;2023-03-31T06:43:41;4.03;;;1.33;;
26806;SDS011;14380;49.910;6.792;2023-03-31T06:46:08;4.20;;;1.60;;
26806;SDS011;14380;49.910;6.792;2023-03-31T06:48:35;6.88;;;1.80;;
26806;SDS011;14380;49.910;6.792;2023-03-31T06:51:02;4.93;;;1.35;;
26806;SDS011;14380;49.910;6.792;2023-03-31T06:53:30;6.25;;;1.52;;
26806;SDS011;14380;49.910;6.792;2023-03-31T06:55:57;5.85;;;2.10;;
26806;SDS011;14380;49.910;6.792;2023-03-31T06:58:23;3.42;;;1.45;;
26806;SDS011;14380;49.910;6.792;2023-03-31T07:00:51;5.47;;;1.73;;
26806;SDS011;14380;49.910;6.792;2023-03-31T07:03:18;6.25;;;1.95;;
26806;SDS011;14380;49.910;6.792;2023-03-31T07:05:47;8.55;;;1.80;;
26806;SDS011;14380;49.910;6.792;2023-03-31T07:08:15;8.05;;;2.72;;
26806;SDS011;14380;49.910;6.792;2023-03-31T07:10:42;7.32;;;1.95;;
26806;SDS011;14380;49.910;6.792;2023-03-31T07:13:11;7.93;;;2.28;;
26806;SDS011;14380;49.910;6.792;2023-03-31T07:15:38;9.65;;;2.50;;
26806;SDS011;14380;49.910;6.792;2023-03-31T07:18:06;9.82;;;3.17;;
26806;SDS011;14380;49.910;6.792;2023-03-31T07:20:33;6.07;;;2.38;;
26806;SDS011;14380;49.910;6.792;2023-03-31T07:23:02;7.93;;;2.65;;
26806;SDS011;14380;49.910;6.792;2023-03-31T07:25:30;8.68;;;3.17;;
26806;SDS011;14380;49.910;6.792;2023-03-31T07:27:57;14.85;;;3.42;;
26806;SDS011;14380;49.910;6.792;2023-03-31T07:30:24;6.70;;;2.80;;
26806;SDS011;14380;49.910;6.792;2023-03-31T07:32:51;9.93;;;3.00;;
26806;SDS011;14380;49.910;6.792;2023-03-31T07:35:20;6.28;;;2.60;;
26806;SDS011;14380;49.910;6.792;2023-03-31T07:37:47;9.82;;;2.50;;
26806;SDS011;14380;49.910;6.792;2023-03-31T07:40:15;8.68;;;2.90;;
26806;SDS011;14380;49.910;6.792;2023-03-31T07:42:44;12.00;;;3.38;;
26806;SDS011;14380;49.910;6.792;2023-03-31T07:45:12;12.05;;;2.95;;
26806;SDS011;14380;49.910;6.792;2023-03-31T07:47:40;11.77;;;3.00;;
26806;SDS011;14380;49.910;6.792;2023-03-31T07:50:08;13.45;;;3.35;;
26806;SDS011;14380;49.910;6.792;2023-03-31T07:52:36;13.70;;;3.30;;
26806;SDS011;14380;49.910;6.792;2023-03-31T07:55:03;11.90;;;3.30;;
26806;SDS011;14380;49.910;6.792;2023-03-31T07:57:30;13.57;;;2.95;;
26806;SDS011;14380;49.910;6.792;2023-03-31T07:59:57;14.15;;;3.22;;
26806;SDS011;14380;49.910;6.792;2023-03-31T08:02:23;12.10;;;2.78;;
26806;SDS011;14380;49.910;6.792;2023-03-31T08:04:50;15.77;;;2.88;;
26806;SDS011;14380;49.910;6.792;2023-03-31T08:07:17;15.27;;;3.50;;
26806;SDS011;14380;49.910;6.792;2023-03-31T08:09:45;14.15;;;3.55;;
26806;SDS011;14380;49.910;6.792;2023-03-31T08:12:12;21.50;;;3.47;;
26806;SDS011;14380;49.910;6.792;2023-03-31T08:14:39;12.35;;;3.80;;
26806;SDS011;14380;49.910;6.792;2023-03-31T08:17:05;16.48;;;3.55;;
26806;SDS011;14380;49.910;6.792;2023-03-31T08:19:32;23.05;;;3.72;;
26806;SDS011;14380;49.910;6.792;2023-03-31T08:21:58;23.35;;;4.43;;
26806;SDS011;14380;49.910;6.792;2023-03-31T08:24:25;24.23;;;4.18;;
26806;SDS011;14380;49.910;6.792;2023-03-31T08:26:53;19.75;;;4.13;;
26806;SDS011;14380;49.910;6.792;2023-03-31T08:29:19;23.63;;;4.68;;
26806;SDS011;14380;49.910;6.792;2023-03-31T08:31:46;16.77;;;3.72;;
26806;SDS011;14380;49.910;6.792;2023-03-31T08:34:12;21.88;;;3.83;;
26806;SDS011;14380;49.910;6.792;2023-03-31T08:36:39;20.23;;;3.97;;
26806;SDS011;14380;49.910;6.792;2023-03-31T08:39:06;20.15;;;3.75;;
26806;SDS011;14380;49.910;6.792;2023-03-31T08:41:35;19.60;;;3.00;;
26806;SDS011;14380;49.910;6.792;2023-03-31T08:44:12;17.23;;;3.42;;
26806;SDS011;14380;49.910;6.792;2023-03-31T08:46:41;16.50;;;4.22;;
26806;SDS011;14380;49.910;6.792;2023-03-31T08:49:09;17.02;;;2.95;;
26806;SDS011;14380;49.910;6.792;2023-03-31T08:51:42;21.38;;;3.75;;
26806;SDS011;14380;49.910;6.792;2023-03-31T08:54:14;23.42;;;3.20;;
26806;SDS011;14380;49.910;6.792;2023-03-31T08:56:43;23.25;;;4.15;;
26806;SDS011;14380;49.910;6.792;2023-03-31T08:59:19;20.77;;;3.05;;
26806;SDS011;14380;49.910;6.792;2023-03-31T09:01:52;16.05;;;2.80;;
26806;SDS011;14380;49.910;6.792;2023-03-31T09:04:40;19.92;;;2.47;;
26806;SDS011;14380;49.910;6.792;2023-03-31T09:07:17;11.52;;;1.90;;
26806;SDS011;14380;49.910;6.792;2023-03-31T09:09:53;13.68;;;2.38;;
26806;SDS011;14380;49.910;6.792;2023-03-31T09:12:29;19.92;;;3.08;;
26806;SDS011;14380;49.910;6.792;2023-03-31T09:15:05;10.52;;;1.98;;
26806;SDS011;14380;49.910;6.792;2023-03-31T09:17:37;15.88;;;2.33;;
26806;SDS011;14380;49.910;6.792;2023-03-31T09:20:11;18.98;;;2.38;;
26806;SDS011;14380;49.910;6.792;2023-03-31T09:22:43;14.93;;;2.83;;
26806;SDS011;14380;49.910;6.792;2023-03-31T09:25:14;15.50;;;2.90;;
26806;SDS011;14380;49.910;6.792;2023-03-31T09:27:44;19.70;;;2.53;;
26806;SDS011;14380;49.910;6.792;2023-03-31T09:30:15;13.68;;;2.75;;
26806;SDS011;14380;49.910;6.792;2023-03-31T09:32:45;16.10;;;3.97;;
26806;SDS011;14380;49.910;6.792;2023-03-31T09:35:16;13.43;;;2.78;;
26806;SDS011;14380;49.910;6.792;2023-03-31T09:37:45;19.67;;;3.17;;
26806;SDS011;14380;49.910;6.792;2023-03-31T09:40:14;14.52;;;3.58;;
26806;SDS011;14380;49.910;6.792;2023-03-31T09:42:43;16.83;;;2.88;;
26806;SDS011;14380;49.910;6.792;2023-03-31T09:45:15;17.15;;;3.20;;
26806;SDS011;14380;49.910;6.792;2023-03-31T09:47:44;20.80;;;4.15;;
26806;SDS011;14380;49.910;6.792;2023-03-31T09:50:13;23.67;;;4.30;;
26806;SDS011;14380;49.910;6.792;2023-03-31T09:52:41;17.42;;;3.90;;
26806;SDS011;14380;49.910;6.792;2023-03-31T09:55:14;20.40;;;3.88;;
26806;SDS011;14380;49.910;6.792;2023-03-31T09:57:45;21.50;;;3.65;;
26806;SDS011;14380;49.910;6.792;2023-03-31T10:00:17;24.10;;;4.82;;
26806;SDS011;14380;49.910;6.792;2023-03-31T10:02:47;24.20;;;4.78;;
26806;SDS011;14380;49.910;6.792;2023-03-31T10:05:24;19.85;;;3.35;;
26806;SDS011;14380;49.910;6.792;2023-03-31T10:08:11;17.45;;;3.17;;
26806;SDS011;14380;49.910;6.792;2023-03-31T10:10:45;13.23;;;2.35;;
26806;SDS011;14380;49.910;6.792;2023-03-31T10:13:15;18.75;;;3.78;;
26806;SDS011;14380;49.910;6.792;2023-03-31T10:15:46;21.17;;;3.95;;
26806;SDS011;14380;49.910;6.792;2023-03-31T10:18:13;17.45;;;3.38;;
26806;SDS011;14380;49.910;6.792;2023-03-31T10:20:42;21.70;;;3.90;;
26806;SDS011;14380;49.910;6.792;2023-03-31T10:23:14;27.08;;;4.18;;
26806;SDS011;14380;49.910;6.792;2023-03-31T10:25:42;17.95;;;3.20;;
26806;SDS011;14380;49.910;6.792;2023-03-31T10:28:11;22.95;;;3.65;;
26806;SDS011;14380;49.910;6.792;2023-03-31T10:30:46;16.92;;;3.88;;
26806;SDS011;14380;49.910;6.792;2023-03-31T10:33:15;19.35;;;3.60;;
26806;SDS011;14380;49.910;6.792;2023-03-31T10:35:44;19.65;;;3.25;;
26806;SDS011;14380;49.910;6.792;2023-03-31T10:38:23;26.30;;;4.32;;
26806;SDS011;14380;49.910;6.792;2023-03-31T10:40:53;20.45;;;3.83;;
26806;SDS011;14380;49.910;6.792;2023-03-31T10:43:23;21.20;;;3.75;;
26806;SDS011;14380;49.910;6.792;2023-03-31T10:45:54;21.58;;;3.05;;
26806;SDS011;14380;49.910;6.792;2023-03-31T10:48:23;18.55;;;3.33;;
26806;SDS011;14380;49.910;6.792;2023-03-31T10:50:51;15.77;;;3.13;;
26806;SDS011;14380;49.910;6.792;2023-03-31T10:53:18;16.75;;;3.03;;
26806;SDS011;14380;49.910;6.792;2023-03-31T10:55:50;17.02;;;3.70;;
26806;SDS011;14380;49.910;6.792;2023-03-31T10:58:30;17.45;;;3.03;;
26806;SDS011;14380;49.910;6.792;2023-03-31T11:01:27;17.67;;;3.53;;
26806;SDS011;14380;49.910;6.792;2023-03-31T11:04:08;18.65;;;3.88;;
26806;SDS011;14380;49.910;6.792;2023-03-31T11:06:49;22.45;;;4.32;;
26806;SDS011;14380;49.910;6.792;2023-03-31T11:09:29;25.13;;;4.60;;
26806;SDS011;14380;49.910;6.792;2023-03-31T11:12:05;14.73;;;2.88;;
26806;SDS011;14380;49.910;6.792;2023-03-31T11:14:39;22.10;;;3.53;;
26806;SDS011;14380;49.910;6.792;2023-03-31T11:17:22;17.00;;;3.65;;
26806;SDS011;14380;49.910;6.792;2023-03-31T11:19:59;17.85;;;3.33;;
26806;SDS011;14380;49.910;6.792;2023-03-31T11:22:36;17.45;;;3.42;;
26806;SDS011;14380;49.910;6.792;2023-03-31T11:25:17;13.50;;;2.40;;
26806;SDS011;14380;49.910;6.792;2023-03-31T11:27:56;17.55;;;2.83;;
26806;SDS011;14380;49.910;6.792;2023-03-31T11:30:36;9.98;;;1.80;;
26806;SDS011;14380;49.910;6.792;2023-03-31T11:33:16;16.70;;;2.25;;
26806;SDS011;14380;49.910;6.792;2023-03-31T11:35:58;17.50;;;2.67;;
26806;SDS011;14380;49.910;6.792;2023-03-31T11:38:36;13.48;;;2.53;;
26806;SDS011;14380;49.910;6.792;2023-03-31T11:41:12;14.63;;;2.40;;
26806;SDS011;14380;49.910;6.792;2023-03-31T11:43:44;11.15;;;2.50;;
26806;SDS011;14380;49.910;6.792;2023-03-31T11:46:14;9.48;;;1.95;;
26806;SDS011;14380;49.910;6.792;2023-03-31T11:48:47;16.92;;;2.42;;
26806;SDS011;14380;49.910;6.792;2023-03-31T11:51:22;16.35;;;2.55;;
26806;SDS011;14380;49.910;6.792;2023-03-31T11:53:52;18.05;;;2.83;;
26806;SDS011;14380;49.910;6.792;2023-03-31T11:56:21;18.30;;;2.83;;
26806;SDS011;14380;49.910;6.792;2023-03-31T11:58:51;12.30;;;2.20;;
26806;SDS011;14380;49.910;6.792;2023-03-31T12:01:21;15.38;;;2.50;;
26806;SDS011;14380;49.910;6.792;2023-03-31T12:03:56;11.52;;;1.95;;
26806;SDS011;14380;49.910;6.792;2023-03-31T12:06:28;9.40;;;2.00;;
26806;SDS011;14380;49.910;6.792;2023-03-31T12:09:01;10.02;;;1.77;;
26806;SDS011;14380;49.910;6.792;2023-03-31T12:11:34;11.37;;;2.77;;
26806;SDS011;14380;49.910;6.792;2023-03-31T12:14:08;12.35;;;2.30;;
26806;SDS011;14380;49.910;6.792;2023-03-31T12:16:46;8.48;;;1.92;;
26806;SDS011;14380;49.910;6.792;2023-03-31T12:19:20;10.95;;;1.90;;
26806;SDS011;14380;49.910;6.792;2023-03-31T12:21:54;9.27;;;2.30;;
26806;SDS011;14380;49.910;6.792;2023-03-31T12:24:24;12.65;;;2.38;;
26806;SDS011;14380;49.910;6.792;2023-03-31T12:26:53;6.18;;;1.30;;
26806;SDS011;14380;49.910;6.792;2023-03-31T12:29:29;6.45;;;1.52;;
26806;SDS011;14380;49.910;6.792;2023-03-31T12:32:00;9.32;;;1.65;;
26806;SDS011;14380;49.910;6.792;2023-03-31T12:34:32;10.38;;;1.50;;
26806;SDS011;14380;49.910;6.792;2023-03-31T12:37:09;12.70;;;3.00;;
26806;SDS011;14380;49.910;6.792;2023-03-31T12:39:58;18.35;;;2.75;;
26806;SDS011;14380;49.910;6.792;2023-03-31T12:42:43;9.43;;;1.95;;
26806;SDS011;14380;49.910;6.792;2023-03-31T12:45:23;13.77;;;2.60;;
26806;SDS011;14380;49.910;6.792;2023-03-31T12:48:05;10.38;;;1.75;;
26806;SDS011;14380;49.910;6.792;2023-03-31T12:53:35;12.57;;;2.75;;
26806;SDS011;14380;49.910;6.792;2023-03-31T12:56:08;12.00;;;2.28;;
26806;SDS011;14380;49.910;6.792;2023-03-31T12:58:39;9.63;;;2.00;;
26806;SDS011;14380;49.910;6.792;2023-03-31T13:03:53;13.50;;;2.65;;
26806;SDS011;14380;49.910;6.792;2023-03-31T13:09:38;13.27;;;2.45;;
26806;SDS011;14380;49.910;6.792;2023-03-31T13:12:13;12.55;;;2.50;;
26806;SDS011;14380;49.910;6.792;2023-03-31T13:14:41;10.65;;;1.70;;
26806;SDS011;14380;49.910;6.792;2023-03-31T13:17:10;12.13;;;2.20;;
26806;SDS011;14380;49.910;6.792;2023-03-31T13:19:39;12.23;;;2.38;;
26806;SDS011;14380;49.910;6.792;2023-03-31T13:22:25;11.88;;;3.03;;
26806;SDS011;14380;49.910;6.792;2023-03-31T13:25:05;10.50;;;2.17;;
26806;SDS011;14380;49.910;6.792;2023-03-31T13:27:58;13.27;;;2.42;;
26806;SDS011;14380;49.910;6.792;2023-03-31T13:30:48;8.68;;;1.95;;
26806;SDS011;14380;49.910;6.792;2023-03-31T13:33:18;8.65;;;1.85;;
26806;SDS011;14380;49.910;6.792;2023-03-31T13:35:49;8.55;;;1.80;;
26806;SDS011;14380;49.910;6.792;2023-03-31T13:38:23;10.90;;;1.85;;
26806;SDS011;14380;49.910;6.792;2023-03-31T13:41:19;11.13;;;2.83;;
26806;SDS011;14380;49.910;6.792;2023-03-31T13:43:58;6.22;;;1.10;;
26806;SDS011;14380;49.910;6.792;2023-03-31T13:49:39;10.90;;;1.55;;
26806;SDS011;14380;49.910;6.792;2023-03-31T13:52:19;9.13;;;1.42;;
26806;SDS011;14380;49.910;6.792;2023-03-31T14:00:46;8.18;;;1.23;;
26806;SDS011;14380;49.910;6.792;2023-03-31T14:03:34;8.88;;;1.73;;
26806;SDS011;14380;49.910;6.792;2023-03-31T14:06:11;11.10;;;2.28;;
26806;SDS011;14380;49.910;6.792;2023-03-31T14:08:49;10.32;;;1.63;;
26806;SDS011;14380;49.910;6.792;2023-03-31T14:11:24;9.98;;;1.80;;
26806;SDS011;14380;49.910;6.792;2023-03-31T14:13:59;9.93;;;1.70;;
26806;SDS011;14380;49.910;6.792;2023-03-31T14:16:27;11.20;;;1.85;;
26806;SDS011;14380;49.910;6.792;2023-03-31T14:18:59;9.93;;;2.15;;
26806;SDS011;14380;49.910;6.792;2023-03-31T14:21:39;11.30;;;2.08;;
26806;SDS011;14380;49.910;6.792;2023-03-31T14:24:15;12.07;;;2.00;;
26806;SDS011;14380;49.910;6.792;2023-03-31T14:26:51;7.90;;;1.52;;
26806;SDS011;14380;49.910;6.792;2023-03-31T14:29:27;11.15;;;2.20;;
26806;SDS011;14380;49.910;6.792;2023-03-31T14:32:01;13.13;;;2.08;;
26806;SDS011;14380;49.910;6.792;2023-03-31T14:34:51;11.25;;;2.50;;
26806;SDS011;14380;49.910;6.792;2023-03-31T14:37:25;14.18;;;2.15;;
26806;SDS011;14380;49.910;6.792;2023-03-31T14:39:53;11.57;;;2.05;;
26806;SDS011;14380;49.910;6.792;2023-03-31T14:42:24;12.63;;;2.50;;
26806;SDS011;14380;49.910;6.792;2023-03-31T14:45:05;14.95;;;2.88;;
26806;SDS011;14380;49.910;6.792;2023-03-31T14:47:41;13.75;;;2.80;;
26806;SDS011;14380;49.910;6.792;2023-03-31T14:50:11;13.60;;;2.17;;
26806;SDS011;14380;49.910;6.792;2023-03-31T14:52:39;15.05;;;2.03;;
26806;SDS011;14380;49.910;6.792;2023-03-31T14:55:13;18.02;;;3.72;;
26806;SDS011;14380;49.910;6.792;2023-03-31T14:57:42;13.43;;;2.63;;
26806;SDS011;14380;49.910;6.792;2023-03-31T15:00:12;12.70;;;2.33;;
26806;SDS011;14380;49.910;6.792;2023-03-31T15:02:42;14.93;;;2.45;;
26806;SDS011;14380;49.910;6.792;2023-03-31T15:05:14;15.55;;;5.78;;
26806;SDS011;14380;49.910;6.792;2023-03-31T15:10:15;17.75;;;6.57;;
26806;SDS011;14380;49.910;6.792;2023-03-31T15:12:46;15.68;;;3.22;;
26806;SDS011;14380;49.910;6.792;2023-03-31T15:15:14;13.85;;;2.15;;
26806;SDS011;14380;49.910;6.792;2023-03-31T15:17:42;8.25;;;1.77;;
26806;SDS011;14380;49.910;6.792;2023-03-31T15:20:24;8.05;;;1.85;;
26806;SDS011;14380;49.910;6.792;2023-03-31T15:22:53;7.68;;;1.17;;
26806;SDS011;14380;49.910;6.792;2023-03-31T15:25:21;7.82;;;1.73;;
26806;SDS011;14380;49.910;6.792;2023-03-31T15:27:53;7.53;;;1.08;;
26806;SDS011;14380;49.910;6.792;2023-03-31T15:30:24;8.38;;;2.63;;
26806;SDS011;14380;49.910;6.792;2023-03-31T15:32:53;8.10;;;3.10;;
26806;SDS011;14380;49.910;6.792;2023-03-31T15:35:21;8.02;;;2.90;;
26806;SDS011;14380;49.910;6.792;2023-03-31T15:37:51;7.57;;;1.55;;